Grand Strand Airport North Myrtle Beach US
ICAO: KCRE
IATA: CRE
Category: Medium
Scheduled Services: No

Elevation: 32 ft
TransAlt. 18000 ft.

Airport Communications:
MYRTLE BEACH APP/DEP:119.2
ATIS:119.625
CTAF:124.6
STRAND GND:121.8
ANDERSON RDO:123.6
STRAND TWR:124.6
UNICOM:122.95

KCRE Zoom In..

If Map Doesn't Load, Click Here

Runways:

(A) RW 05 length 5997 ft width 100 ft
---- / hdg 54

(B) RW 23 length 5997 ft width 100 ft
ILS 111.70 / hdg 234

Location; KCRE
Day. 21 / Time. 14.53 Zulu
* Altimeter: 30.22
* Temperature: 27° c. 80.6°f.
* Wind from: 030° Speed 05 kn.
Dewpoint: 19° c.
Visibility: 10 Statute Miles.
Clouds: Few 6000 ft.

KCRE 211453Z 03005KT 10SM FEW060 27/19 A3022 RMK AO1 SLP234 T02720194 50006


Wind From 030°
Speed 05 kn.

 
 
jpsmedia.com for Web Design worldairports.se 2018   terms of use